Time;durP1;ratioP1;P1;durP2;ratioP2;P2;SDS_P1;SDS_P2;PMS_P1;PMS_P2;Temp;Humidity;BMP_temperature;BMP_pressure;BME280_temperature;BME280_humidity;BME280_pressure;Samples;Min_cycle;Max_cycle;Signal;HPM_P1;HPM_P2
2021/09/05 00:00:08;;;;;;;23.13;15.40;;;;;;;;;;2642246;30;20482;-81
2021/09/05 00:02:34;;;;;;;21.73;16.20;;;;;;;;;;2641326;38;20482;-81
2021/09/05 00:05:00;;;;;;;30.63;17.93;;;;;;;;;;2640566;30;20367;-81
2021/09/05 00:07:26;;;;;;;19.90;16.07;;;;;;;;;;2638269;38;20366;-81
2021/09/05 00:09:52;;;;;;;20.00;15.10;;;;;;;;;;2641672;30;20387;-81
2021/09/05 00:12:18;;;;;;;26.63;16.60;;;;;;;;;;2641783;38;20422;-81
2021/09/05 00:14:44;;;;;;;20.17;14.10;;;;;;;;;;2639652;30;20366;-81
2021/09/05 00:17:10;;;;;;;23.10;16.10;;;;;;;;;;2640182;30;20415;-81
2021/09/05 00:19:38;;;;;;;21.67;14.90;;;;;;;;;;2639232;30;20379;-81
2021/09/05 00:22:04;;;;;;;20.23;15.67;;;;;;;;;;2639009;38;20466;-81
2021/09/05 00:24:30;;;;;;;21.37;16.10;;;;;;;;;;2640451;30;20371;-81
2021/09/05 00:26:57;;;;;;;25.97;15.40;;;;;;;;;;2638721;30;20358;-81
2021/09/05 00:29:25;;;;;;;24.13;15.77;;;;;;;;;;2637280;30;20381;-81
2021/09/05 00:31:52;;;;;;;23.50;16.67;;;;;;;;;;2639213;38;20362;-81
2021/09/05 00:34:18;;;;;;;24.20;15.70;;;;;;;;;;2635858;38;20914;-81
2021/09/05 00:36:44;;;;;;;21.23;16.83;;;;;;;;;;2639920;38;20895;-81
2021/09/05 00:39:29;;;;;;;27.23;16.70;;;;;;;;;;2641131;30;20363;-80
2021/09/05 00:41:55;;;;;;;20.97;16.70;;;;;;;;;;2638864;38;20359;-81
2021/09/05 00:44:21;;;;;;;24.57;17.33;;;;;;;;;;2642672;30;20358;-80
2021/09/05 00:46:47;;;;;;;27.10;16.60;;;;;;;;;;2644425;30;20458;-81
2021/09/05 00:49:24;;;;;;;26.93;16.27;;;;;;;;;;2639876;38;20411;-81
2021/09/05 00:51:50;;;;;;;23.27;17.10;;;;;;;;;;2642870;30;21145;-80
2021/09/05 00:54:17;;;;;;;23.13;16.03;;;;;;;;;;2646142;30;20431;-81
2021/09/05 00:56:44;;;;;;;22.17;16.67;;;;;;;;;;2638956;38;20422;-81
2021/09/05 00:59:17;;;;;;;24.80;17.20;;;;;;;;;;2642067;38;20379;-82
2021/09/05 01:04:28;;;;;;;26.83;18.67;;;;;;;;;;2620061;38;20506;-73
2021/09/05 01:06:54;;;;;;;21.80;17.57;;;;;;;;;;2626167;30;20403;-73
2021/09/05 01:09:21;;;;;;;29.67;16.73;;;;;;;;;;2626773;38;20387;-73
2021/09/05 01:11:47;;;;;;;20.90;15.60;;;;;;;;;;2625133;30;20391;-73
2021/09/05 01:14:13;;;;;;;23.83;15.67;;;;;;;;;;2625965;30;20474;-73
2021/09/05 01:16:43;;;;;;;29.73;17.20;;;;;;;;;;2626325;30;20768;-73
2021/09/05 01:19:13;;;;;;;27.87;17.67;;;;;;;;;;2624613;30;20386;-73
2021/09/05 01:21:41;;;;;;;26.47;17.70;;;;;;;;;;2623963;38;20418;-73
2021/09/05 01:24:07;;;;;;;26.53;17.13;;;;;;;;;;2624955;30;20417;-74
2021/09/05 01:26:35;;;;;;;29.33;17.33;;;;;;;;;;2627494;30;20375;-73
2021/09/05 01:29:01;;;;;;;26.73;18.77;;;;;;;;;;2628762;30;20375;-74
2021/09/05 01:31:48;;;;;;;22.47;16.20;;;;;;;;;;2625452;38;20379;-73
2021/09/05 01:34:15;;;;;;;24.23;16.70;;;;;;;;;;2623892;38;20394;-73
2021/09/05 01:36:42;;;;;;;29.50;17.70;;;;;;;;;;2625038;30;20414;-73
2021/09/05 01:39:09;;;;;;;30.20;16.03;;;;;;;;;;2624786;30;20377;-73
2021/09/05 01:41:35;;;;;;;25.87;18.87;;;;;;;;;;2625332;30;20409;-73
2021/09/05 01:44:03;;;;;;;23.47;19.37;;;;;;;;;;2626417;30;20898;-74
2021/09/05 01:46:30;;;;;;;25.97;17.10;;;;;;;;;;2628411;30;21255;-74
2021/09/05 01:48:56;;;;;;;27.13;18.90;;;;;;;;;;2625340;30;20375;-73
2021/09/05 01:51:22;;;;;;;25.33;16.80;;;;;;;;;;2626124;30;20918;-73
2021/09/05 01:53:48;;;;;;;31.43;18.27;;;;;;;;;;2625271;30;20363;-74
2021/09/05 01:56:14;;;;;;;26.80;16.93;;;;;;;;;;2623950;30;20363;-75
2021/09/05 01:58:40;;;;;;;24.67;16.03;;;;;;;;;;2625260;30;20406;-74
2021/09/05 02:01:06;;;;;;;28.37;17.67;;;;;;;;;;2626071;30;20400;-74
2021/09/05 02:03:32;;;;;;;29.93;17.80;;;;;;;;;;2626132;30;20944;-74
2021/09/05 02:05:58;;;;;;;26.13;16.90;;;;;;;;;;2625900;30;20383;-74
2021/09/05 02:08:25;;;;;;;37.40;18.60;;;;;;;;;;2625659;30;20766;-74
2021/09/05 02:10:51;;;;;;;24.63;18.23;;;;;;;;;;2625832;30;20894;-77
2021/09/05 02:13:17;;;;;;;26.23;18.97;;;;;;;;;;2624065;30;20379;-73
2021/09/05 02:15:43;;;;;;;23.90;17.00;;;;;;;;;;2625088;30;20954;-73
2021/09/05 02:18:09;;;;;;;25.77;18.10;;;;;;;;;;2625201;38;20385;-74
2021/09/05 02:20:35;;;;;;;30.17;21.13;;;;;;;;;;2628144;30;20418;-74
2021/09/05 02:23:02;;;;;;;24.30;18.60;;;;;;;;;;2625993;30;20974;-74
2021/09/05 02:25:28;;;;;;;32.27;17.53;;;;;;;;;;2626334;30;20402;-74
2021/09/05 02:27:54;;;;;;;27.30;17.47;;;;;;;;;;2628224;30;20394;-74
2021/09/05 02:30:20;;;;;;;28.57;19.00;;;;;;;;;;2626306;30;20377;-74
2021/09/05 02:32:46;;;;;;;30.00;18.13;;;;;;;;;;2625016;30;20382;-73
2021/09/05 02:35:12;;;;;;;27.20;17.63;;;;;;;;;;2624579;30;20659;-74
2021/09/05 02:37:39;;;;;;;25.77;17.80;;;;;;;;;;2628751;30;20882;-74
2021/09/05 02:40:06;;;;;;;25.90;17.60;;;;;;;;;;2629330;30;20824;-74
2021/09/05 02:42:33;;;;;;;25.73;17.77;;;;;;;;;;2624259;30;20403;-73
2021/09/05 02:45:03;;;;;;;34.73;17.90;;;;;;;;;;2624982;38;20379;-74
2021/09/05 02:47:29;;;;;;;33.03;19.50;;;;;;;;;;2624218;30;20383;-73
2021/09/05 02:49:55;;;;;;;26.63;19.00;;;;;;;;;;2626297;30;20863;-74
2021/09/05 02:52:21;;;;;;;25.90;17.90;;;;;;;;;;2624266;38;20397;-74
2021/09/05 02:54:47;;;;;;;29.23;16.73;;;;;;;;;;2625763;30;20411;-74
2021/09/05 02:57:15;;;;;;;26.07;16.20;;;;;;;;;;2628721;38;20905;-74
2021/09/05 02:59:41;;;;;;;23.97;17.60;;;;;;;;;;2626454;30;20385;-74
2021/09/05 03:02:07;;;;;;;30.23;19.07;;;;;;;;;;2622951;38;20490;-74
2021/09/05 03:04:33;;;;;;;26.23;19.00;;;;;;;;;;2624854;38;20375;-74
2021/09/05 03:06:59;;;;;;;28.13;17.80;;;;;;;;;;2623975;38;20378;-73
2021/09/05 03:09:25;;;;;;;24.80;17.37;;;;;;;;;;2624668;38;20789;-73
2021/09/05 03:11:51;;;;;;;27.23;18.40;;;;;;;;;;2624959;30;20406;-73
2021/09/05 03:14:17;;;;;;;30.80;20.00;;;;;;;;;;2627860;30;20401;-73
2021/09/05 03:16:44;;;;;;;27.97;19.17;;;;;;;;;;2628513;30;20385;-73
2021/09/05 03:19:10;;;;;;;26.10;19.37;;;;;;;;;;2624776;30;20395;-73
2021/09/05 03:21:37;;;;;;;31.47;19.93;;;;;;;;;;2626342;30;20367;-73
2021/09/05 03:24:03;;;;;;;32.03;18.80;;;;;;;;;;2628008;30;20370;-73
2021/09/05 03:26:29;;;;;;;30.07;18.83;;;;;;;;;;2626426;38;20436;-74
2021/09/05 03:28:55;;;;;;;30.83;20.57;;;;;;;;;;2626932;30;20399;-74
2021/09/05 03:31:22;;;;;;;28.73;19.17;;;;;;;;;;2626769;30;20903;-73
2021/09/05 03:33:48;;;;;;;32.10;18.80;;;;;;;;;;2626210;30;20359;-73
2021/09/05 03:36:14;;;;;;;30.73;18.23;;;;;;;;;;2625998;30;20934;-74
2021/09/05 03:38:40;;;;;;;28.90;18.50;;;;;;;;;;2624438;38;20395;-74
2021/09/05 03:41:06;;;;;;;28.60;18.73;;;;;;;;;;2626316;30;20876;-73
2021/09/05 03:43:32;;;;;;;27.77;18.03;;;;;;;;;;2625136;30;22515;-73
2021/09/05 03:45:58;;;;;;;24.33;18.07;;;;;;;;;;2625661;38;20363;-74
2021/09/05 03:48:24;;;;;;;28.70;18.87;;;;;;;;;;2624070;38;20383;-74
2021/09/05 03:50:50;;;;;;;22.07;18.17;;;;;;;;;;2628789;30;20935;-74
2021/09/05 03:53:16;;;;;;;38.03;21.73;;;;;;;;;;2627521;30;20861;-73
2021/09/05 03:55:43;;;;;;;28.83;18.50;;;;;;;;;;2624729;30;20802;-73
2021/09/05 03:58:09;;;;;;;34.80;21.60;;;;;;;;;;2626990;30;20929;-73
2021/09/05 04:00:36;;;;;;;28.00;18.20;;;;;;;;;;2624973;38;20430;-74
2021/09/05 04:03:02;;;;;;;30.57;20.80;;;;;;;;;;2624878;30;21086;-74
2021/09/05 04:05:27;;;;;;;30.93;18.27;;;;;;;;;;2625059;38;20381;-73
2021/09/05 04:10:33;;;;;;;27.60;17.13;;;;;;;;;;2627263;30;20378;-74
2021/09/05 04:12:59;;;;;;;26.37;17.83;;;;;;;;;;2625509;30;20400;-73
2021/09/05 04:15:25;;;;;;;24.23;17.10;;;;;;;;;;2626395;30;20375;-74
2021/09/05 04:17:51;;;;;;;30.50;19.10;;;;;;;;;;2625113;30;20422;-74
2021/09/05 04:20:17;;;;;;;30.70;17.73;;;;;;;;;;2625193;30;20366;-74
2021/09/05 04:22:43;;;;;;;30.27;18.73;;;;;;;;;;2624607;38;20386;-74
2021/09/05 04:25:10;;;;;;;30.63;19.70;;;;;;;;;;2625656;38;20470;-73
2021/09/05 04:27:36;;;;;;;31.20;20.30;;;;;;;;;;2627821;38;20379;-74
2021/09/05 04:30:03;;;;;;;30.53;20.10;;;;;;;;;;2629232;30;20989;-73
2021/09/05 04:32:29;;;;;;;35.90;20.93;;;;;;;;;;2625038;38;20363;-73
2021/09/05 04:34:55;;;;;;;33.23;19.50;;;;;;;;;;2627130;30;20374;-74
2021/09/05 04:37:22;;;;;;;32.47;18.00;;;;;;;;;;2622971;38;20375;-73
2021/09/05 04:39:48;;;;;;;26.10;17.10;;;;;;;;;;2625660;30;20364;-73
2021/09/05 04:42:14;;;;;;;32.90;19.27;;;;;;;;;;2625735;30;20370;-74
2021/09/05 04:44:40;;;;;;;26.33;18.77;;;;;;;;;;2626053;38;20383;-73
2021/09/05 04:47:06;;;;;;;25.53;17.30;;;;;;;;;;2629017;30;20355;-73
2021/09/05 04:49:33;;;;;;;29.40;18.03;;;;;;;;;;2626368;30;21023;-73
2021/09/05 04:51:59;;;;;;;29.50;19.00;;;;;;;;;;2624784;30;20390;-74
2021/09/05 04:54:25;;;;;;;32.67;18.93;;;;;;;;;;2628514;30;21465;-74
2021/09/05 04:56:52;;;;;;;30.30;18.90;;;;;;;;;;2625856;30;20387;-73
2021/09/05 04:59:18;;;;;;;34.17;18.97;;;;;;;;;;2626409;30;20457;-74
2021/09/05 05:01:44;;;;;;;30.27;18.97;;;;;;;;;;2625948;38;20933;-74
2021/09/05 05:04:10;;;;;;;31.40;20.00;;;;;;;;;;2628701;30;20921;-74
2021/09/05 05:06:40;;;;;;;29.17;19.00;;;;;;;;;;2627224;30;20375;-74
2021/09/05 05:09:08;;;;;;;36.30;20.70;;;;;;;;;;2625565;30;20462;-73
2021/09/05 05:11:34;;;;;;;29.57;19.97;;;;;;;;;;2625953;38;20787;-73
2021/09/05 05:14:00;;;;;;;38.17;20.50;;;;;;;;;;2626351;30;20466;-73
2021/09/05 05:16:26;;;;;;;35.73;20.37;;;;;;;;;;2624702;38;20792;-73
2021/09/05 05:18:52;;;;;;;32.80;18.27;;;;;;;;;;2627649;30;21561;-73
2021/09/05 05:21:18;;;;;;;33.60;22.70;;;;;;;;;;2628178;30;20916;-74
2021/09/05 05:23:44;;;;;;;34.87;20.70;;;;;;;;;;2625078;38;20429;-74
2021/09/05 05:26:10;;;;;;;28.00;19.93;;;;;;;;;;2627099;30;20810;-74
2021/09/05 05:28:36;;;;;;;30.20;19.17;;;;;;;;;;2625644;30;20909;-74
2021/09/05 05:31:02;;;;;;;31.30;19.10;;;;;;;;;;2625415;30;20910;-74
2021/09/05 05:33:29;;;;;;;30.97;20.57;;;;;;;;;;2626344;30;20990;-76
2021/09/05 05:35:55;;;;;;;32.20;20.00;;;;;;;;;;2627772;30;21102;-74
2021/09/05 05:38:21;;;;;;;30.77;17.97;;;;;;;;;;2629665;30;20382;-75
2021/09/05 05:40:47;;;;;;;33.90;20.87;;;;;;;;;;2626618;30;20431;-74
2021/09/05 05:43:13;;;;;;;26.23;17.30;;;;;;;;;;2624127;38;20407;-74
2021/09/05 05:45:39;;;;;;;32.60;21.83;;;;;;;;;;2625003;38;20975;-74
2021/09/05 05:48:06;;;;;;;29.50;20.07;;;;;;;;;;2625223;30;20821;-74
2021/09/05 05:50:32;;;;;;;31.23;19.53;;;;;;;;;;2623832;30;20378;-74
2021/09/05 05:52:58;;;;;;;25.10;18.03;;;;;;;;;;2624513;30;20387;-74
2021/09/05 05:55:24;;;;;;;30.10;19.27;;;;;;;;;;2627132;38;20952;-75
2021/09/05 05:57:50;;;;;;;31.03;20.40;;;;;;;;;;2627638;38;20798;-75
2021/09/05 06:00:16;;;;;;;29.50;19.80;;;;;;;;;;2626861;30;20403;-74
2021/09/05 06:02:42;;;;;;;30.60;19.23;;;;;;;;;;2625962;30;20415;-75
2021/09/05 06:05:09;;;;;;;29.00;18.40;;;;;;;;;;2624705;38;20420;-75
2021/09/05 06:07:35;;;;;;;27.47;17.27;;;;;;;;;;2625783;30;20391;-73
2021/09/05 06:10:02;;;;;;;22.43;17.13;;;;;;;;;;2625529;30;20985;-73
2021/09/05 06:12:28;;;;;;;26.73;17.97;;;;;;;;;;2624669;30;20355;-74
2021/09/05 06:14:54;;;;;;;28.00;17.20;;;;;;;;;;2628192;30;20907;-74
2021/09/05 06:17:21;;;;;;;28.17;16.47;;;;;;;;;;2628029;30;20898;-74
2021/09/05 06:19:48;;;;;;;20.13;14.60;;;;;;;;;;2624974;30;20942;-74
2021/09/05 06:22:14;;;;;;;25.83;16.00;;;;;;;;;;2623611;30;20390;-74
2021/09/05 06:24:40;;;;;;;22.07;16.57;;;;;;;;;;2623784;30;20422;-73
2021/09/05 06:27:06;;;;;;;23.10;15.47;;;;;;;;;;2625886;30;20370;-74
2021/09/05 06:29:33;;;;;;;21.53;16.20;;;;;;;;;;2625640;30;21304;-74
2021/09/05 06:31:59;;;;;;;21.47;15.90;;;;;;;;;;2627272;30;20816;-74
2021/09/05 06:34:25;;;;;;;20.67;17.00;;;;;;;;;;2628215;30;20371;-74
2021/09/05 06:36:51;;;;;;;18.60;14.60;;;;;;;;;;2624902;30;20419;-74
2021/09/05 06:39:17;;;;;;;20.73;15.83;;;;;;;;;;2624687;30;20389;-76
2021/09/05 06:41:43;;;;;;;22.87;16.63;;;;;;;;;;2623930;38;20382;-75
2021/09/05 06:44:09;;;;;;;25.93;16.60;;;;;;;;;;2624061;30;20387;-74
2021/09/05 06:46:35;;;;;;;21.90;16.67;;;;;;;;;;2624676;30;20412;-73
2021/09/05 06:49:01;;;;;;;22.33;16.37;;;;;;;;;;2625030;30;20411;-73
2021/09/05 06:51:27;;;;;;;19.23;15.37;;;;;;;;;;2628240;30;20898;-73
2021/09/05 06:53:53;;;;;;;21.80;16.97;;;;;;;;;;2624300;30;20379;-73
2021/09/05 06:56:19;;;;;;;21.73;16.10;;;;;;;;;;2624041;30;20370;-73
2021/09/05 06:58:46;;;;;;;19.30;16.00;;;;;;;;;;2621115;30;20416;-73
2021/09/05 07:01:12;;;;;;;20.03;15.67;;;;;;;;;;2622133;30;20518;-73
2021/09/05 07:03:38;;;;;;;20.90;16.30;;;;;;;;;;2623127;30;20375;-74
2021/09/05 07:06:05;;;;;;;20.90;16.43;;;;;;;;;;2622297;38;20474;-74
2021/09/05 07:08:31;;;;;;;17.50;15.60;;;;;;;;;;2621916;30;21137;-74
2021/09/05 07:10:57;;;;;;;19.90;15.80;;;;;;;;;;2622630;30;20386;-74
2021/09/05 07:13:23;;;;;;;21.33;14.80;;;;;;;;;;2622213;30;20418;-74
2021/09/05 07:15:49;;;;;;;19.60;15.93;;;;;;;;;;2624000;30;20970;-74
2021/09/05 07:18:15;;;;;;;18.13;15.47;;;;;;;;;;2623853;38;20944;-74
2021/09/05 20:21:36;;;;;;;14.33;12.67;;;;;;;;;;2676201;35;20450;-73
2021/09/05 20:24:03;;;;;;;19.47;13.83;;;;;;;;;;2620407;38;20407;-73
2021/09/05 20:26:30;;;;;;;19.10;15.23;;;;;;;;;;2620063;30;20374;-73
2021/09/05 20:28:56;;;;;;;18.03;14.83;;;;;;;;;;2618660;30;21281;-73
2021/09/05 20:31:22;;;;;;;24.17;17.47;;;;;;;;;;2622150;30;20409;-73
2021/09/05 20:33:48;;;;;;;22.97;18.20;;;;;;;;;;2622150;30;20900;-74
2021/09/05 20:36:15;;;;;;;20.10;16.17;;;;;;;;;;2618682;38;20527;-73
2021/09/05 20:38:41;;;;;;;25.17;18.07;;;;;;;;;;2650212;30;20430;-73
2021/09/05 20:41:07;;;;;;;20.93;16.23;;;;;;;;;;2619255;30;21855;-73
2021/09/05 20:43:33;;;;;;;20.10;16.20;;;;;;;;;;2621738;30;20883;-73
2021/09/05 20:45:59;;;;;;;21.10;16.30;;;;;;;;;;2619306;30;20379;-73
2021/09/05 20:48:26;;;;;;;23.50;17.13;;;;;;;;;;2618504;38;21261;-73
2021/09/05 20:50:53;;;;;;;21.47;16.50;;;;;;;;;;2620901;30;20419;-73
2021/09/05 20:53:19;;;;;;;20.17;16.17;;;;;;;;;;2621185;30;20989;-74
2021/09/05 20:55:46;;;;;;;18.97;16.93;;;;;;;;;;2620852;30;20391;-73
2021/09/05 20:58:12;;;;;;;19.03;15.10;;;;;;;;;;2619746;30;20414;-73
2021/09/05 21:00:40;;;;;;;21.53;17.50;;;;;;;;;;2621293;30;21113;-73
2021/09/05 21:03:06;;;;;;;16.73;14.80;;;;;;;;;;2626615;30;20937;-72
2021/09/05 21:05:35;;;;;;;21.20;16.50;;;;;;;;;;2625432;30;20401;-73
2021/09/05 21:08:01;;;;;;;22.87;16.23;;;;;;;;;;2622709;30;20367;-74
2021/09/05 21:10:27;;;;;;;20.07;15.90;;;;;;;;;;2625437;30;21076;-76
2021/09/05 21:12:53;;;;;;;17.63;14.63;;;;;;;;;;2624943;30;20478;-74
2021/09/05 21:15:20;;;;;;;22.50;17.10;;;;;;;;;;2625700;30;20374;-74
2021/09/05 21:17:46;;;;;;;20.17;15.97;;;;;;;;;;2625075;30;20399;-74
2021/09/05 21:20:12;;;;;;;18.00;15.07;;;;;;;;;;2627032;30;20486;-74
2021/09/05 21:22:38;;;;;;;22.83;14.77;;;;;;;;;;2627302;30;20398;-74
2021/09/05 21:25:04;;;;;;;18.60;15.27;;;;;;;;;;2625032;30;20798;-74
2021/09/05 21:27:30;;;;;;;21.53;15.47;;;;;;;;;;2625174;30;20387;-74
2021/09/05 21:29:56;;;;;;;25.27;15.93;;;;;;;;;;2624010;38;20937;-74
2021/09/05 21:32:22;;;;;;;17.87;14.70;;;;;;;;;;2626376;38;20417;-74
2021/09/05 21:34:48;;;;;;;18.13;15.10;;;;;;;;;;2628088;30;20359;-74
2021/09/05 21:37:14;;;;;;;20.10;14.37;;;;;;;;;;2625993;30;20454;-74
2021/09/05 21:39:40;;;;;;;20.43;15.33;;;;;;;;;;2624213;38;20414;-74
2021/09/05 21:42:06;;;;;;;32.80;16.43;;;;;;;;;;2625261;30;20370;-74
2021/09/05 21:44:32;;;;;;;18.37;14.97;;;;;;;;;;2623544;30;20422;-74
2021/09/05 21:46:58;;;;;;;20.13;15.37;;;;;;;;;;2624821;30;20395;-74
2021/09/05 21:49:24;;;;;;;18.83;16.23;;;;;;;;;;2627282;30;20543;-74
2021/09/05 21:51:50;;;;;;;19.47;14.03;;;;;;;;;;2626389;30;20486;-74
2021/09/05 21:54:16;;;;;;;16.70;13.93;;;;;;;;;;2625390;30;20383;-74
2021/09/05 21:56:42;;;;;;;27.77;16.30;;;;;;;;;;2625279;38;20489;-74
2021/09/05 21:59:08;;;;;;;18.17;14.67;;;;;;;;;;2624696;38;20794;-74
2021/09/05 22:01:35;;;;;;;18.03;15.00;;;;;;;;;;2623950;30;20438;-74
2021/09/05 22:04:01;;;;;;;24.43;15.20;;;;;;;;;;2624293;38;20382;-74
2021/09/05 22:06:27;;;;;;;18.97;15.27;;;;;;;;;;2628217;30;20359;-74
2021/09/05 22:08:54;;;;;;;21.03;15.77;;;;;;;;;;2625872;38;20379;-74
2021/09/05 22:11:20;;;;;;;20.13;15.43;;;;;;;;;;2621394;38;20381;-74
2021/09/05 22:13:46;;;;;;;19.03;15.23;;;;;;;;;;2627963;30;20374;-74
2021/09/05 22:16:13;;;;;;;19.43;14.87;;;;;;;;;;2627475;30;20370;-74
2021/09/05 22:18:38;;;;;;;18.37;14.03;;;;;;;;;;2628013;30;20379;-74
2021/09/05 22:21:05;;;;;;;20.27;15.57;;;;;;;;;;2626620;30;20455;-73
2021/09/05 22:23:33;;;;;;;19.43;15.43;;;;;;;;;;2626902;38;20470;-73
2021/09/05 22:25:59;;;;;;;25.07;15.10;;;;;;;;;;2626220;30;20367;-74
2021/09/05 22:28:25;;;;;;;19.33;15.10;;;;;;;;;;2624601;30;20885;-73
2021/09/05 22:30:51;;;;;;;19.87;15.00;;;;;;;;;;2624119;30;20789;-74
2021/09/05 22:33:17;;;;;;;17.27;14.10;;;;;;;;;;2623994;30;20367;-74
2021/09/05 22:35:43;;;;;;;19.10;14.60;;;;;;;;;;2624243;30;20374;-74
2021/09/05 22:38:09;;;;;;;18.73;14.33;;;;;;;;;;2624537;30;20711;-74
2021/09/05 22:40:35;;;;;;;19.30;15.17;;;;;;;;;;2628267;30;21350;-74
2021/09/05 22:43:01;;;;;;;18.70;13.93;;;;;;;;;;2627197;30;20387;-74
2021/09/05 22:45:27;;;;;;;17.10;14.80;;;;;;;;;;2625209;30;20392;-74
2021/09/05 22:47:53;;;;;;;21.70;16.23;;;;;;;;;;2624940;30;20953;-74
2021/09/05 22:50:19;;;;;;;20.20;15.40;;;;;;;;;;2626624;30;20486;-74
2021/09/05 22:52:45;;;;;;;23.40;17.07;;;;;;;;;;2625819;30;20419;-74
2021/09/05 22:55:11;;;;;;;21.87;15.03;;;;;;;;;;2624425;38;20942;-74
2021/09/05 22:57:37;;;;;;;19.50;15.40;;;;;;;;;;2627282;30;20756;-74
2021/09/05 23:00:05;;;;;;;20.30;14.47;;;;;;;;;;2627592;30;20377;-74
2021/09/05 23:02:31;;;;;;;19.40;15.03;;;;;;;;;;2623078;38;20410;-74
2021/09/05 23:04:57;;;;;;;22.80;15.10;;;;;;;;;;2623743;30;20934;-74
2021/09/05 23:07:23;;;;;;;23.10;15.40;;;;;;;;;;2622036;30;20378;-74
2021/09/05 23:09:49;;;;;;;18.80;14.47;;;;;;;;;;2624612;30;20419;-74
2021/09/05 23:12:15;;;;;;;19.20;14.30;;;;;;;;;;2624967;30;20912;-74
2021/09/05 23:14:41;;;;;;;19.27;14.33;;;;;;;;;;2625524;31;20355;-74
2021/09/05 23:17:07;;;;;;;19.63;15.77;;;;;;;;;;2626567;38;20409;-74
2021/09/05 23:19:33;;;;;;;23.60;16.80;;;;;;;;;;2622042;38;20379;-74
2021/09/05 23:21:59;;;;;;;23.47;16.37;;;;;;;;;;2623705;30;20482;-73
2021/09/05 23:24:25;;;;;;;23.03;16.73;;;;;;;;;;2624517;30;21061;-73
2021/09/05 23:26:51;;;;;;;22.70;15.40;;;;;;;;;;2625357;30;20407;-74
2021/09/05 23:29:17;;;;;;;22.70;15.70;;;;;;;;;;2626780;38;20378;-74
2021/09/05 23:31:43;;;;;;;19.27;15.07;;;;;;;;;;2626629;38;20562;-74
2021/09/05 23:34:09;;;;;;;23.27;15.57;;;;;;;;;;2626914;30;20363;-74
2021/09/05 23:36:35;;;;;;;21.90;15.37;;;;;;;;;;2629083;30;20379;-74
2021/09/05 23:39:01;;;;;;;21.83;16.43;;;;;;;;;;2621555;38;20379;-73
2021/09/05 23:41:27;;;;;;;20.50;15.13;;;;;;;;;;2622336;38;20909;-74
2021/09/05 23:43:53;;;;;;;19.43;15.50;;;;;;;;;;2622501;38;20397;-74
2021/09/05 23:46:19;;;;;;;19.33;15.60;;;;;;;;;;2625082;30;20405;-74
2021/09/05 23:48:45;;;;;;;20.57;16.80;;;;;;;;;;2624000;30;20896;-74
2021/09/05 23:51:11;;;;;;;17.03;13.87;;;;;;;;;;2623905;38;20392;-73
2021/09/05 23:53:37;;;;;;;19.83;15.83;;;;;;;;;;2626213;30;20390;-74
2021/09/05 23:56:03;;;;;;;24.87;16.30;;;;;;;;;;2627105;38;21051;-73
2021/09/05 23:58:29;;;;;;;19.17;15.13;;;;;;;;;;2624191;38;20394;-74
